createdAt,value
2022-11-27T00:01:26.136Z,27.13
2022-11-27T00:03:54.542Z,24.23
2022-11-27T00:06:24.220Z,20.33
2022-11-27T00:08:51.248Z,20.93
2022-11-27T00:11:20.820Z,19.33
2022-11-27T00:13:48.335Z,18.27
2022-11-27T00:16:15.607Z,18.10
2022-11-27T00:18:42.844Z,18.93
2022-11-27T00:21:17.436Z,20.20
2022-11-27T00:23:44.162Z,21.33
2022-11-27T00:26:11.608Z,20.63
2022-11-27T00:28:38.885Z,21.97
2022-11-27T00:31:13.663Z,20.17
2022-11-27T00:36:08.278Z,21.73
2022-11-27T00:38:38.973Z,20.67
2022-11-27T00:41:15.377Z,18.20
2022-11-27T00:43:45.575Z,17.93
2022-11-27T00:46:25.231Z,18.90
2022-11-27T00:48:53.692Z,20.17
2022-11-27T00:51:22.546Z,25.03
2022-11-27T00:53:49.809Z,19.93
2022-11-27T00:56:27.989Z,18.77
2022-11-27T00:58:55.425Z,17.80
2022-11-27T01:01:25.176Z,19.47
2022-11-27T01:03:51.923Z,25.63
2022-11-27T01:06:20.078Z,21.83
2022-11-27T01:08:47.429Z,20.93
2022-11-27T01:11:17.049Z,25.10
2022-11-27T01:13:44.260Z,25.60
2022-11-27T01:16:13.811Z,24.07
2022-11-27T01:18:43.101Z,23.27
2022-11-27T01:21:11.610Z,23.30
2022-11-27T01:23:38.434Z,20.10
2022-11-27T01:26:07.885Z,19.40
2022-11-27T01:28:35.488Z,19.60
2022-11-27T01:31:23.284Z,25.53
2022-11-27T01:33:54.125Z,18.30
2022-11-27T01:36:21.409Z,17.50
2022-11-27T01:38:48.178Z,18.13
2022-11-27T01:41:18.347Z,18.23
2022-11-27T01:43:48.382Z,28.87
2022-11-27T01:46:31.034Z,27.70
2022-11-27T01:49:09.701Z,24.17
2022-11-27T01:51:59.707Z,25.13
2022-11-27T01:54:33.443Z,26.17
2022-11-27T01:57:07.291Z,24.17
2022-11-27T01:59:34.147Z,29.53
2022-11-27T02:02:02.921Z,28.53
2022-11-27T02:04:30.137Z,26.07
2022-11-27T02:06:59.415Z,24.70
2022-11-27T02:09:28.156Z,28.30
2022-11-27T02:12:13.400Z,28.83
2022-11-27T02:17:30.664Z,28.93
2022-11-27T02:20:03.473Z,27.57
2022-11-27T02:22:48.944Z,27.67
2022-11-27T02:25:38.244Z,25.93
2022-11-27T02:28:04.899Z,22.63
2022-11-27T02:30:36.756Z,21.40
2022-11-27T02:33:10.763Z,21.67
2022-11-27T02:36:07.862Z,22.92
2022-11-27T02:39:02.794Z,22.33
2022-11-27T02:41:37.385Z,20.73
2022-11-27T02:44:09.453Z,21.48
2022-11-27T02:46:38.010Z,21.83
2022-11-27T02:49:08.874Z,22.93
2022-11-27T02:51:41.417Z,30.43
2022-11-27T02:54:13.624Z,17.77
2022-11-27T02:56:42.093Z,19.67
2022-11-27T02:59:14.635Z,19.50
2022-11-27T03:01:53.858Z,18.20
2022-11-27T03:04:27.056Z,19.10
2022-11-27T03:06:57.224Z,17.83
2022-11-27T03:09:40.301Z,18.30
2022-11-27T03:12:09.211Z,19.87
2022-11-27T03:14:38.319Z,21.97
2022-11-27T03:17:27.203Z,22.17
2022-11-27T03:19:58.887Z,22.90
2022-11-27T03:22:27.021Z,20.83
2022-11-27T03:24:54.264Z,24.50
2022-11-27T03:27:43.772Z,25.67
2022-11-27T03:30:12.238Z,30.17
2022-11-27T03:32:38.927Z,26.27
2022-11-27T03:35:09.210Z,24.30
2022-11-27T03:37:36.383Z,23.80
2022-11-27T03:40:04.524Z,25.73
2022-11-27T03:43:12.603Z,26.87
2022-11-27T03:45:53.326Z,28.00
2022-11-27T03:48:30.427Z,26.23
2022-11-27T03:51:20.175Z,24.97
2022-11-27T03:54:10.263Z,29.43
2022-11-27T03:56:50.613Z,26.67
2022-11-27T03:59:23.155Z,26.83
2022-11-27T04:01:50.015Z,24.27
2022-11-27T04:04:16.784Z,20.87
2022-11-27T04:06:43.654Z,20.87
2022-11-27T04:09:10.414Z,21.00
2022-11-27T04:11:37.335Z,23.60
2022-11-27T04:14:04.209Z,22.80
2022-11-27T04:16:30.883Z,22.93
2022-11-27T04:18:57.650Z,22.83
2022-11-27T04:21:24.360Z,21.80
2022-11-27T04:23:51.027Z,21.43
2022-11-27T04:26:17.781Z,21.23
2022-11-27T04:28:44.405Z,23.97
2022-11-27T04:31:11.374Z,23.53
2022-11-27T04:33:38.829Z,25.17
2022-11-27T04:36:05.955Z,25.57
2022-11-27T04:38:32.588Z,24.50
2022-11-27T04:40:59.289Z,24.30
2022-11-27T04:43:26.179Z,22.27
2022-11-27T04:45:52.899Z,22.03
2022-11-27T04:48:19.778Z,24.23
2022-11-27T04:50:46.646Z,26.40
2022-11-27T04:53:13.325Z,25.87
2022-11-27T04:55:39.965Z,24.63
2022-11-27T04:58:06.634Z,26.80
2022-11-27T05:00:33.464Z,29.67
2022-11-27T05:03:00.357Z,27.23
2022-11-27T05:05:27.085Z,30.60
2022-11-27T05:07:54.963Z,56.13
2022-11-27T05:10:21.631Z,28.73
2022-11-27T05:12:48.296Z,21.90
2022-11-27T05:15:14.952Z,28.90
2022-11-27T05:17:41.656Z,43.70
2022-11-27T05:20:08.815Z,26.03
2022-11-27T05:22:35.530Z,30.17
2022-11-27T05:25:02.158Z,35.13
2022-11-27T05:27:28.780Z,30.73
2022-11-27T05:29:55.443Z,30.57
2022-11-27T05:32:22.108Z,28.47
2022-11-27T05:34:49.786Z,25.17
2022-11-27T05:37:19.467Z,23.27
2022-11-27T05:39:46.907Z,33.13
2022-11-27T05:42:13.679Z,37.90
2022-11-27T05:44:40.636Z,35.43
2022-11-27T05:47:07.577Z,33.70
2022-11-27T05:49:34.356Z,27.03
2022-11-27T05:52:01.013Z,25.20
2022-11-27T05:54:27.749Z,27.67
2022-11-27T05:56:54.482Z,26.73
2022-11-27T05:59:21.440Z,27.73
2022-11-27T06:01:49.649Z,31.80
2022-11-27T06:04:16.806Z,27.37
2022-11-27T06:06:43.512Z,28.67
2022-11-27T06:09:13.131Z,28.50
2022-11-27T06:11:44.160Z,31.42
2022-11-27T06:14:11.421Z,37.97
2022-11-27T06:16:38.477Z,37.17
2022-11-27T06:19:05.280Z,40.30
2022-11-27T06:21:32.054Z,35.20
2022-11-27T06:23:58.762Z,33.23
2022-11-27T06:26:30.920Z,33.40
2022-11-27T06:29:01.054Z,35.60
2022-11-27T06:31:30.911Z,38.13
2022-11-27T06:33:58.630Z,35.33
2022-11-27T06:36:31.894Z,37.37
2022-11-27T06:38:58.532Z,39.07
2022-11-27T06:41:27.292Z,46.03
2022-11-27T06:43:55.631Z,47.47
2022-11-27T06:46:23.484Z,39.67
2022-11-27T06:48:52.504Z,45.17
2022-11-27T06:51:25.163Z,42.93
2022-11-27T06:53:53.214Z,31.00
2022-11-27T06:56:25.769Z,27.43
2022-11-27T06:58:58.404Z,28.60
2022-11-27T07:01:26.944Z,30.07
2022-11-27T07:03:53.938Z,29.37
2022-11-27T07:06:23.284Z,33.80
2022-11-27T07:08:50.358Z,26.17
2022-11-27T07:11:20.158Z,23.10
2022-11-27T07:13:48.157Z,36.73
2022-11-27T07:16:15.911Z,27.80
2022-11-27T07:18:45.216Z,25.83
2022-11-27T07:21:12.315Z,27.13
2022-11-27T07:23:39.494Z,23.57
2022-11-27T07:26:07.528Z,23.93
2022-11-27T07:28:34.607Z,15.87
2022-11-27T07:31:02.228Z,31.77
2022-11-27T07:33:29.010Z,25.67
2022-11-27T07:36:10.899Z,24.77
2022-11-27T07:38:37.693Z,23.57
2022-11-27T07:41:05.591Z,21.27
2022-11-27T07:43:34.016Z,23.55
2022-11-27T07:46:12.012Z,17.33
2022-11-27T07:48:39.088Z,13.45
2022-11-27T07:51:07.290Z,13.85
2022-11-27T07:53:37.710Z,13.63
2022-11-27T07:56:06.185Z,15.63
2022-11-27T07:58:33.055Z,12.95
2022-11-27T08:01:00.079Z,14.67
2022-11-27T08:03:26.901Z,7.38
2022-11-27T08:05:53.580Z,15.70
2022-11-27T08:08:20.279Z,19.55
2022-11-27T08:10:47.062Z,11.07
2022-11-27T08:13:13.915Z,8.73
2022-11-27T08:15:40.953Z,6.10
2022-11-27T08:18:07.924Z,9.38
2022-11-27T08:20:34.719Z,9.18
2022-11-27T08:23:03.245Z,13.52
2022-11-27T08:25:30.360Z,9.60
2022-11-27T08:27:57.155Z,12.73
2022-11-27T08:30:23.934Z,14.85
2022-11-27T08:32:50.928Z,7.38
2022-11-27T08:35:17.712Z,8.80
2022-11-27T08:37:44.627Z,9.05
2022-11-27T08:40:11.643Z,14.27
2022-11-27T08:42:38.319Z,16.77
2022-11-27T08:45:05.273Z,7.70
2022-11-27T08:47:34.979Z,2.85
2022-11-27T08:50:01.649Z,6.93
2022-11-27T08:52:28.355Z,9.18
2022-11-27T08:54:57.832Z,10.65
2022-11-27T08:57:25.277Z,8.77
2022-11-27T08:59:52.054Z,12.73
2022-11-27T09:02:18.800Z,9.68
2022-11-27T09:04:45.445Z,9.38
2022-11-27T09:07:17.738Z,8.07
2022-11-27T09:09:44.511Z,6.25
2022-11-27T09:12:11.261Z,11.63
2022-11-27T09:14:38.359Z,9.43
2022-11-27T09:17:05.125Z,6.43
2022-11-27T09:19:31.857Z,7.50
2022-11-27T09:21:59.594Z,7.32
2022-11-27T09:24:26.332Z,7.40
2022-11-27T09:26:53.052Z,10.20
2022-11-27T09:29:19.680Z,9.68
2022-11-27T09:31:46.654Z,13.98
2022-11-27T09:34:13.678Z,9.25
2022-11-27T09:36:40.559Z,9.55
2022-11-27T09:39:07.292Z,8.25
2022-11-27T09:41:43.214Z,12.20
2022-11-27T09:44:12.913Z,13.38
2022-11-27T09:46:42.360Z,9.77
2022-11-27T09:49:17.942Z,6.85
2022-11-27T09:51:55.075Z,10.43
2022-11-27T09:54:30.627Z,6.38
2022-11-27T09:56:58.776Z,7.93
2022-11-27T09:59:49.200Z,8.80
2022-11-27T10:02:18.773Z,4.95
2022-11-27T10:05:12.269Z,5.35
2022-11-27T10:07:44.562Z,4.78
2022-11-27T10:10:27.163Z,3.95
2022-11-27T10:13:29.051Z,6.45
2022-11-27T10:16:06.725Z,4.75
2022-11-27T10:18:48.029Z,7.25
2022-11-27T10:21:37.630Z,6.63
2022-11-27T10:24:10.205Z,8.15
2022-11-27T10:26:41.736Z,7.18
2022-11-27T10:29:33.994Z,6.28
2022-11-27T10:32:52.917Z,6.93
2022-11-27T10:35:18.005Z,6.22
2022-11-27T10:38:03.717Z,5.85
2022-11-27T10:40:39.568Z,5.50
2022-11-27T10:43:18.722Z,9.77
2022-11-27T10:46:15.436Z,5.38
2022-11-27T10:48:42.502Z,3.40
2022-11-27T10:51:24.453Z,6.75
2022-11-27T10:53:53.815Z,15.55
2022-11-27T10:56:58.246Z,9.88
2022-11-27T10:59:34.994Z,6.25
2022-11-27T11:02:03.912Z,6.05
2022-11-27T11:04:37.968Z,7.35
2022-11-27T11:07:25.061Z,2.38
2022-11-27T11:09:52.737Z,6.60
2022-11-27T11:12:22.160Z,4.45
2022-11-27T11:15:01.834Z,4.68
2022-11-27T11:17:40.968Z,5.28
2022-11-27T11:20:24.641Z,4.05
2022-11-27T11:22:51.717Z,9.10
2022-11-27T11:25:20.880Z,5.03
2022-11-27T11:27:50.635Z,3.38
2022-11-27T11:30:30.116Z,3.15
2022-11-27T11:33:02.712Z,13.68
2022-11-27T11:35:35.460Z,5.13
2022-11-27T11:38:05.466Z,6.25
2022-11-27T11:40:35.221Z,2.65
2022-11-27T11:43:21.328Z,7.40
2022-11-27T11:45:49.061Z,2.72
2022-11-27T11:48:28.876Z,9.18
2022-11-27T11:51:04.780Z,16.02
2022-11-27T11:53:37.932Z,6.10
2022-11-27T11:56:33.895Z,5.22
2022-11-27T11:59:14.216Z,18.35
2022-11-27T12:01:54.570Z,12.13
2022-11-27T12:04:33.935Z,9.68
2022-11-27T12:07:52.564Z,16.75
2022-11-27T12:10:19.457Z,11.63
2022-11-27T12:12:52.287Z,8.88
2022-11-27T12:15:42.231Z,13.43
2022-11-27T12:18:36.254Z,10.85
2022-11-27T12:21:18.360Z,9.70
2022-11-27T12:24:00.214Z,9.02
2022-11-27T12:26:31.527Z,16.80
2022-11-27T12:29:37.133Z,10.57
2022-11-27T12:32:19.102Z,5.13
2022-11-27T12:35:01.915Z,9.93
2022-11-27T12:37:31.618Z,10.45
2022-11-27T12:40:30.845Z,10.20
2022-11-27T12:43:25.165Z,3.85
2022-11-27T12:45:54.700Z,12.57
2022-11-27T12:48:46.419Z,10.27
2022-11-27T12:51:20.960Z,13.60
2022-11-27T12:54:03.822Z,15.23
2022-11-27T12:56:59.900Z,8.38
2022-11-27T12:59:35.199Z,11.05
2022-11-27T13:02:05.800Z,7.05
2022-11-27T13:04:51.936Z,9.85
2022-11-27T13:07:27.055Z,11.95
2022-11-27T13:10:03.424Z,19.15
2022-11-27T13:12:37.957Z,11.63
2022-11-27T13:15:19.617Z,8.35
2022-11-27T13:17:54.197Z,15.82
2022-11-27T13:20:30.320Z,12.65
2022-11-27T13:22:57.146Z,16.55
2022-11-27T13:25:25.317Z,20.75
2022-11-27T13:27:53.859Z,33.10
2022-11-27T13:30:24.812Z,16.55
2022-11-27T13:32:56.234Z,24.65
2022-11-27T13:35:50.882Z,12.77
2022-11-27T13:38:17.597Z,20.20
2022-11-27T13:40:47.731Z,16.63
2022-11-27T13:43:42.634Z,14.52
2022-11-27T13:46:18.521Z,13.13
2022-11-27T13:48:52.778Z,14.52
2022-11-27T13:51:28.562Z,8.75
2022-11-27T13:54:18.189Z,14.20
2022-11-27T13:56:45.142Z,10.68
2022-11-27T13:59:23.092Z,19.80
2022-11-27T14:02:09.124Z,14.73
2022-11-27T14:04:36.258Z,9.55
2022-11-27T14:07:11.379Z,5.00
2022-11-27T14:10:07.355Z,10.40
2022-11-27T14:12:34.424Z,8.33
2022-11-27T14:15:08.645Z,20.70
2022-11-27T14:17:39.614Z,19.17
2022-11-27T14:20:29.230Z,15.97
2022-11-27T14:23:14.262Z,6.83
2022-11-27T14:25:41.509Z,19.23
2022-11-27T14:28:21.948Z,16.90
2022-11-27T14:30:51.843Z,8.30
2022-11-27T14:33:18.508Z,9.43
2022-11-27T14:35:52.673Z,13.67
2022-11-27T14:38:20.049Z,33.25
2022-11-27T14:40:47.308Z,44.05
2022-11-27T14:43:16.975Z,79.80
2022-11-27T14:45:47.278Z,34.07
2022-11-27T14:48:23.963Z,47.33
2022-11-27T14:50:52.510Z,13.23
2022-11-27T14:53:22.605Z,63.97
2022-11-27T14:55:52.615Z,15.32
2022-11-27T14:58:28.033Z,17.07
2022-11-27T15:01:03.684Z,10.80
2022-11-27T15:03:30.959Z,9.83
2022-11-27T15:06:02.175Z,11.17
2022-11-27T15:08:32.109Z,11.32
2022-11-27T15:11:00.996Z,5.70
2022-11-27T15:13:34.931Z,12.27
2022-11-27T15:16:18.897Z,30.70
2022-11-27T15:18:54.639Z,21.07
2022-11-27T15:21:25.783Z,16.87
2022-11-27T15:23:54.877Z,26.13
2022-11-27T15:26:39.785Z,42.03
2022-11-27T15:29:38.918Z,44.40
2022-11-27T15:32:45.753Z,12.23
2022-11-27T15:35:14.574Z,18.17
2022-11-27T15:37:41.929Z,30.53
2022-11-27T15:40:28.672Z,27.33
2022-11-27T15:42:55.501Z,6.50
2022-11-27T15:45:22.541Z,9.80
2022-11-27T15:47:49.359Z,14.10
2022-11-27T15:50:16.855Z,7.97
2022-11-27T15:52:44.018Z,14.77
2022-11-27T15:55:17.754Z,12.10
2022-11-27T15:57:44.726Z,19.17
2022-11-27T16:00:12.000Z,23.47
2022-11-27T16:02:40.577Z,8.13
2022-11-27T16:05:08.327Z,27.67
2022-11-27T16:07:35.301Z,26.97
2022-11-27T16:10:02.097Z,15.93
2022-11-27T16:12:28.737Z,16.30
2022-11-27T16:14:55.387Z,14.73
2022-11-27T16:17:22.165Z,7.10
2022-11-27T16:19:48.871Z,5.97
2022-11-27T16:22:15.693Z,10.00
2022-11-27T16:24:42.797Z,7.87
2022-11-27T16:27:09.683Z,10.37
2022-11-27T16:29:36.497Z,16.73
2022-11-27T16:32:03.328Z,33.30
2022-11-27T16:34:30.158Z,12.87
2022-11-27T16:36:56.783Z,11.23
2022-11-27T16:39:24.093Z,7.47
2022-11-27T16:41:50.819Z,36.17
2022-11-27T16:44:17.536Z,19.63
2022-11-27T16:46:44.673Z,11.23
2022-11-27T16:49:12.163Z,5.80
2022-11-27T16:51:40.107Z,14.13
2022-11-27T16:54:10.219Z,3.83
2022-11-27T16:56:38.765Z,10.63
2022-11-27T16:59:14.566Z,30.77
2022-11-27T17:01:42.747Z,21.80
2022-11-27T17:04:18.724Z,39.20
2022-11-27T17:06:46.145Z,14.70
2022-11-27T17:09:13.470Z,16.77
2022-11-27T17:11:48.433Z,21.10
2022-11-27T17:14:16.372Z,34.13
2022-11-27T17:16:43.571Z,22.80
2022-11-27T17:19:15.079Z,19.53
2022-11-27T17:21:42.479Z,20.13
2022-11-27T17:24:15.292Z,21.23
2022-11-27T17:26:43.709Z,18.90
2022-11-27T17:29:15.284Z,17.37
2022-11-27T17:31:42.171Z,15.13
2022-11-27T17:34:12.597Z,14.17
2022-11-27T17:36:42.106Z,15.07
2022-11-27T17:39:10.640Z,16.53
2022-11-27T17:41:37.595Z,15.40
2022-11-27T17:44:07.545Z,22.87
2022-11-27T17:46:36.311Z,9.60
2022-11-27T17:49:05.103Z,11.90
2022-11-27T17:51:33.181Z,13.23
2022-11-27T17:54:01.801Z,18.63
2022-11-27T17:56:29.623Z,25.07
2022-11-27T17:58:56.527Z,17.37
2022-11-27T18:01:25.650Z,13.00
2022-11-27T18:03:56.245Z,11.70
2022-11-27T18:06:23.117Z,10.23
2022-11-27T18:08:50.424Z,13.47
2022-11-27T18:11:22.325Z,11.37
2022-11-27T18:13:49.986Z,10.13
2022-11-27T18:16:24.034Z,9.80
2022-11-27T18:18:51.819Z,10.43
2022-11-27T18:21:20.498Z,5.33
2022-11-27T18:29:22.723Z,6.77
2022-11-27T18:31:51.249Z,4.83
2022-11-27T18:34:18.431Z,8.13
2022-11-27T18:36:46.026Z,7.47
2022-11-27T18:39:13.210Z,6.97
2022-11-27T18:41:40.059Z,4.50
2022-11-27T18:44:06.907Z,7.23
2022-11-27T18:46:33.801Z,11.93
2022-11-27T18:49:00.660Z,7.67
2022-11-27T18:51:27.516Z,6.80
2022-11-27T18:53:56.003Z,14.27
2022-11-27T18:56:25.951Z,7.63
2022-11-27T18:58:54.266Z,7.37
2022-11-27T19:01:26.995Z,7.03
2022-11-27T19:03:54.444Z,8.00
2022-11-27T19:06:24.767Z,6.90
2022-11-27T19:08:52.508Z,9.17
2022-11-27T19:11:23.557Z,8.67
2022-11-27T19:13:52.254Z,14.70
2022-11-27T19:16:22.275Z,4.23
2022-11-27T19:18:49.091Z,7.73
2022-11-27T19:21:18.898Z,5.13
2022-11-27T19:23:46.064Z,7.50
2022-11-27T19:26:16.356Z,8.77
2022-11-27T19:28:46.243Z,17.67
2022-11-27T19:31:13.958Z,4.57
2022-11-27T19:33:41.070Z,5.50
2022-11-27T19:36:12.050Z,6.90
2022-11-27T19:38:40.880Z,9.60
2022-11-27T19:41:15.692Z,8.77
2022-11-27T19:43:43.408Z,8.77
2022-11-27T19:46:16.698Z,4.23
2022-11-27T19:48:44.570Z,4.40
2022-11-27T19:51:12.912Z,7.70
2022-11-27T19:53:40.643Z,10.20
2022-11-27T19:56:08.004Z,11.87
2022-11-27T19:58:36.118Z,17.73
2022-11-27T20:01:18.274Z,20.10
2022-11-27T20:03:46.173Z,25.10
2022-11-27T20:06:16.242Z,32.00
2022-11-27T20:08:44.857Z,31.27
2022-11-27T20:11:16.286Z,12.80
2022-11-27T20:13:43.542Z,18.23
2022-11-27T20:16:20.291Z,15.37
2022-11-27T20:18:47.928Z,14.13
2022-11-27T20:21:23.678Z,16.10
2022-11-27T20:23:53.252Z,5.47
2022-11-27T20:26:23.664Z,6.67
2022-11-27T20:28:52.182Z,14.00
2022-11-27T20:31:25.539Z,13.70
2022-11-27T20:33:54.323Z,20.37
2022-11-27T20:36:23.099Z,6.20
2022-11-27T20:38:51.073Z,6.63
2022-11-27T20:41:20.209Z,9.83
2022-11-27T20:43:47.782Z,5.13
2022-11-27T20:46:16.191Z,6.10
2022-11-27T20:48:46.986Z,7.53
2022-11-27T20:51:17.001Z,7.53
2022-11-27T20:53:45.867Z,6.03
2022-11-27T20:56:14.309Z,5.33
2022-11-27T20:58:42.445Z,5.13
2022-11-27T21:01:15.071Z,5.93
2022-11-27T21:03:41.906Z,4.83
2022-11-27T21:06:08.803Z,4.90
2022-11-27T21:08:35.849Z,4.33
2022-11-27T21:11:14.389Z,8.43
2022-11-27T21:13:41.965Z,7.93
2022-11-27T21:16:13.495Z,9.13
2022-11-27T21:18:40.833Z,6.50
2022-11-27T21:21:14.254Z,4.10
2022-11-27T21:23:42.182Z,7.40
2022-11-27T21:26:09.763Z,14.93
2022-11-27T21:28:36.994Z,9.03
2022-11-27T21:31:06.113Z,7.03
2022-11-27T21:33:33.162Z,6.87
2022-11-27T21:36:00.087Z,5.07
2022-11-27T21:38:26.785Z,6.67
2022-11-27T21:40:54.255Z,9.03
2022-11-27T21:43:21.038Z,5.37
2022-11-27T21:45:47.744Z,6.10
2022-11-27T21:48:14.669Z,6.23
2022-11-27T21:50:41.952Z,6.43
2022-11-27T21:53:08.727Z,7.10
2022-11-27T21:55:39.728Z,11.57
2022-11-27T21:58:06.454Z,16.27
2022-11-27T22:00:33.193Z,11.87
2022-11-27T22:02:59.880Z,13.33
2022-11-27T22:05:26.640Z,10.60
2022-11-27T22:07:53.387Z,12.23
2022-11-27T22:10:20.303Z,11.63
2022-11-27T22:12:47.007Z,11.00
2022-11-27T22:15:13.670Z,13.63
2022-11-27T22:17:40.399Z,16.00
2022-11-27T22:20:07.628Z,8.87
2022-11-27T22:22:34.772Z,7.30
2022-11-27T22:25:04.346Z,7.33
2022-11-27T22:27:31.058Z,7.17
2022-11-27T22:29:57.685Z,11.93
2022-11-27T22:32:24.614Z,9.20
2022-11-27T22:34:52.698Z,10.50
2022-11-27T22:37:19.417Z,7.63
2022-11-27T22:39:46.115Z,7.27
2022-11-27T22:42:12.784Z,8.27
2022-11-27T22:44:39.621Z,9.93
2022-11-27T22:47:06.458Z,7.13
2022-11-27T22:49:33.308Z,8.37
2022-11-27T22:52:00.033Z,9.20
2022-11-27T22:54:26.686Z,8.33
2022-11-27T22:56:53.402Z,8.43
2022-11-27T22:59:35.308Z,7.17
2022-11-27T23:02:03.271Z,14.37
2022-11-27T23:04:30.748Z,10.03
2022-11-27T23:06:57.536Z,17.50
2022-11-27T23:09:24.672Z,20.83
2022-11-27T23:11:51.482Z,15.40
2022-11-27T23:14:18.505Z,13.10
2022-11-27T23:16:45.515Z,7.37
2022-11-27T23:19:12.540Z,11.17
2022-11-27T23:21:39.858Z,7.50
2022-11-27T23:24:08.714Z,10.33
2022-11-27T23:26:35.773Z,9.40
2022-11-27T23:29:02.535Z,9.33
2022-11-27T23:31:35.651Z,12.00
2022-11-27T23:34:07.536Z,7.97
2022-11-27T23:36:38.607Z,7.87
2022-11-27T23:39:07.187Z,7.03
2022-11-27T23:41:34.274Z,7.17
2022-11-27T23:44:01.654Z,8.53
2022-11-27T23:46:30.292Z,6.33
2022-11-27T23:48:59.739Z,7.43
2022-11-27T23:51:29.680Z,7.50
2022-11-27T23:53:57.064Z,7.03
2022-11-27T23:56:27.864Z,8.63
2022-11-27T23:58:55.864Z,7.80
